createdAt,value
2023-04-27T00:00:11.551Z,95896.00
2023-04-27T00:02:58.033Z,95899.00
2023-04-27T00:05:44.863Z,95898.00
2023-04-27T00:08:31.578Z,95900.00
2023-04-27T00:11:17.888Z,95898.00
2023-04-27T00:14:04.378Z,95895.00
2023-04-27T00:16:52.475Z,95893.00
2023-04-27T00:19:39.884Z,95885.00
2023-04-27T00:22:26.828Z,95898.00
2023-04-27T00:25:13.053Z,95888.00
2023-04-27T00:27:59.770Z,95903.00
2023-04-27T00:30:46.604Z,95898.00
2023-04-27T00:33:32.817Z,95894.00
2023-04-27T00:36:19.290Z,95889.00
2023-04-27T00:39:07.350Z,95889.00
2023-04-27T00:41:53.824Z,95874.00
2023-04-27T00:44:40.073Z,95879.00
2023-04-27T00:47:27.354Z,95885.00
2023-04-27T00:50:14.887Z,95874.00
2023-04-27T00:53:01.790Z,95883.00
2023-04-27T00:55:48.960Z,95882.00
2023-04-27T00:58:35.078Z,95882.00
2023-04-27T01:01:21.396Z,95879.00
2023-04-27T01:04:09.358Z,95882.00
2023-04-27T01:06:55.611Z,95871.00
2023-04-27T01:09:42.332Z,95877.00
2023-04-27T01:12:28.317Z,95878.00
2023-04-27T01:15:14.618Z,95877.00
2023-04-27T01:18:05.933Z,95872.00
2023-04-27T01:20:51.965Z,95874.00
2023-04-27T01:23:39.354Z,95879.00
2023-04-27T01:26:25.479Z,95871.00
2023-04-27T01:29:11.968Z,95877.00
2023-04-27T01:31:57.962Z,95871.00
2023-04-27T01:34:46.341Z,95879.00
2023-04-27T01:37:32.366Z,95874.00
2023-04-27T01:40:18.751Z,95878.00
2023-04-27T01:43:05.503Z,95879.00
2023-04-27T01:45:51.601Z,95870.00
2023-04-27T01:48:40.332Z,95874.00
2023-04-27T01:51:26.421Z,95890.00
2023-04-27T01:54:12.445Z,95892.00
2023-04-27T01:56:58.956Z,95899.00
2023-04-27T01:59:45.692Z,95894.00
2023-04-27T02:02:32.106Z,95893.00
2023-04-27T02:05:18.132Z,95898.00
2023-04-27T02:08:05.757Z,95897.00
2023-04-27T02:10:51.860Z,95891.00
2023-04-27T02:13:38.645Z,95898.00
2023-04-27T02:16:25.384Z,95903.00
2023-04-27T02:19:11.659Z,95896.00
2023-04-27T02:21:58.112Z,95899.00
2023-04-27T02:24:44.295Z,95888.00
2023-04-27T02:27:30.244Z,95913.00
2023-04-27T02:30:19.252Z,95898.00
2023-04-27T02:33:05.983Z,95900.00
2023-04-27T02:36:10.950Z,95902.00
2023-04-27T02:39:02.970Z,95895.00
2023-04-27T02:41:49.735Z,95909.00
2023-04-27T02:44:54.670Z,95918.00
2023-04-27T02:47:59.247Z,95919.00
2023-04-27T02:51:05.523Z,95921.00
2023-04-27T02:54:13.559Z,95905.00
2023-04-27T02:57:18.652Z,95899.00
2023-04-27T03:00:09.634Z,95905.00
2023-04-27T03:03:14.824Z,95913.00
2023-04-27T03:06:20.060Z,95915.00
2023-04-27T03:09:28.520Z,95909.00
2023-04-27T03:12:17.035Z,95912.00
2023-04-27T03:15:05.512Z,95913.00
2023-04-27T03:18:11.791Z,95908.00
2023-04-27T03:21:11.023Z,95904.00
2023-04-27T03:23:56.833Z,95905.00
2023-04-27T03:26:42.444Z,95923.00
2023-04-27T03:29:28.912Z,95911.00
2023-04-27T03:32:15.597Z,95920.00
2023-04-27T03:35:02.985Z,95915.00
2023-04-27T03:37:48.993Z,95916.00
2023-04-27T03:40:36.597Z,95921.00
2023-04-27T03:43:23.674Z,95921.00
2023-04-27T03:46:09.920Z,95930.00
2023-04-27T03:48:56.403Z,95928.00
2023-04-27T03:51:44.058Z,95934.00
2023-04-27T03:54:34.204Z,95932.00
2023-04-27T03:57:20.200Z,95929.00
2023-04-27T04:00:13.189Z,95931.00
2023-04-27T04:02:59.298Z,95935.00
2023-04-27T04:05:47.374Z,95929.00
2023-04-27T04:08:34.345Z,95920.00
2023-04-27T04:11:20.920Z,95930.00
2023-04-27T04:14:07.196Z,95929.00
2023-04-27T04:16:56.065Z,95943.00
2023-04-27T04:19:45.975Z,95935.00
2023-04-27T04:22:32.073Z,95942.00
2023-04-27T04:25:21.109Z,95941.00
2023-04-27T04:28:07.714Z,95944.00
2023-04-27T04:30:54.038Z,95939.00
2023-04-27T04:33:40.197Z,95938.00
2023-04-27T04:36:25.997Z,95939.00
2023-04-27T04:39:15.120Z,95936.00
2023-04-27T04:42:04.231Z,95936.00
2023-04-27T04:44:56.039Z,95953.00
2023-04-27T04:47:42.773Z,95955.00
2023-04-27T04:50:30.682Z,95949.00
2023-04-27T04:53:18.008Z,95953.00
2023-04-27T04:56:16.337Z,95960.00
2023-04-27T04:59:03.102Z,95962.00
2023-04-27T05:01:55.651Z,95955.00
2023-04-27T05:04:41.696Z,95961.00
2023-04-27T05:07:29.703Z,95957.00
2023-04-27T05:10:16.080Z,95972.00
2023-04-27T05:13:02.192Z,95972.00
2023-04-27T05:15:48.904Z,95972.00
2023-04-27T05:18:36.178Z,95973.00
2023-04-27T05:21:22.689Z,95967.00
2023-04-27T05:24:08.601Z,95979.00
2023-04-27T05:26:55.172Z,95975.00
2023-04-27T05:29:41.600Z,95984.00
2023-04-27T05:32:27.929Z,95974.00
2023-04-27T05:35:13.994Z,95979.00
2023-04-27T05:38:00.323Z,95980.00
2023-04-27T05:40:46.920Z,95976.00
2023-04-27T05:43:35.273Z,95961.00
2023-04-27T05:46:21.545Z,95972.00
2023-04-27T05:49:07.380Z,95966.00
2023-04-27T05:51:53.918Z,95966.00
2023-04-27T05:54:40.069Z,95972.00
2023-04-27T05:57:26.297Z,95975.00
2023-04-27T06:00:14.335Z,95982.00
2023-04-27T06:03:01.799Z,95973.00
2023-04-27T06:05:50.222Z,95974.00
2023-04-27T06:08:39.906Z,95983.00
2023-04-27T06:11:26.357Z,95984.00
2023-04-27T06:14:12.248Z,95975.00
2023-04-27T06:16:58.479Z,95981.00
2023-04-27T06:19:47.561Z,95984.00
2023-04-27T06:22:34.178Z,95992.00
2023-04-27T06:25:20.360Z,95997.00
2023-04-27T06:28:08.778Z,95990.00
2023-04-27T06:30:57.690Z,95991.00
2023-04-27T06:33:44.573Z,95998.00
2023-04-27T06:36:31.819Z,95994.00
2023-04-27T06:39:17.920Z,96003.00
2023-04-27T06:42:07.372Z,96006.00
2023-04-27T06:44:56.680Z,96004.00
2023-04-27T06:47:43.170Z,95993.00
2023-04-27T06:50:30.937Z,96010.00
2023-04-27T06:53:17.573Z,95997.00
2023-04-27T06:56:03.968Z,96005.00
2023-04-27T06:58:50.071Z,96006.00
2023-04-27T07:01:51.840Z,96011.00
2023-04-27T07:04:38.918Z,96008.00
2023-04-27T07:07:25.454Z,96014.00
2023-04-27T07:10:15.642Z,96009.00
2023-04-27T07:13:01.616Z,96020.00
2023-04-27T07:15:47.881Z,96017.00
2023-04-27T07:18:34.236Z,96024.00
2023-04-27T07:21:21.677Z,96018.00
2023-04-27T07:24:08.194Z,96019.00
2023-04-27T07:26:54.334Z,96016.00
2023-04-27T07:29:40.306Z,96020.00
2023-04-27T07:32:29.889Z,96019.00
2023-04-27T07:35:15.495Z,96019.00
2023-04-27T07:38:03.589Z,96004.00
2023-04-27T07:40:49.979Z,96022.00
2023-04-27T07:43:36.531Z,96019.00
2023-04-27T07:46:22.307Z,96012.00
2023-04-27T07:49:08.768Z,96018.00
2023-04-27T07:51:54.569Z,95996.00
2023-04-27T07:54:44.516Z,96015.00
2023-04-27T07:57:32.788Z,96010.00
2023-04-27T08:00:20.087Z,96009.00
2023-04-27T08:03:06.351Z,96017.00
2023-04-27T08:05:56.758Z,96015.00
2023-04-27T08:08:43.258Z,96016.00
2023-04-27T08:11:29.288Z,96008.00
2023-04-27T08:14:15.361Z,96003.00
2023-04-27T08:17:01.601Z,96006.00
2023-04-27T08:19:48.272Z,95997.00
2023-04-27T08:22:35.023Z,95998.00
2023-04-27T08:25:21.470Z,96004.00
2023-04-27T08:28:08.476Z,95990.00
2023-04-27T08:30:55.400Z,95998.00
2023-04-27T08:33:42.422Z,96001.00
2023-04-27T08:36:31.475Z,95993.00
2023-04-27T08:39:18.492Z,95995.00
2023-04-27T08:42:14.003Z,96001.00
2023-04-27T08:45:00.557Z,96002.00
2023-04-27T08:47:47.071Z,95995.00
2023-04-27T08:50:33.653Z,95983.00
2023-04-27T08:53:26.460Z,95993.00
2023-04-27T08:56:12.897Z,95992.00
2023-04-27T08:59:05.265Z,95993.00
2023-04-27T09:02:05.728Z,95986.00
2023-04-27T09:04:52.593Z,95983.00
2023-04-27T09:07:38.745Z,96000.00
2023-04-27T09:10:25.060Z,95976.00
2023-04-27T09:13:14.507Z,95979.00
2023-04-27T09:16:00.836Z,95992.00
2023-04-27T09:18:47.866Z,95988.00
2023-04-27T09:21:35.202Z,95987.00
2023-04-27T09:24:21.366Z,95989.00
2023-04-27T09:27:09.072Z,95974.00
2023-04-27T09:29:56.150Z,95984.00
2023-04-27T09:33:17.651Z,95983.00
2023-04-27T09:36:07.807Z,95963.00
2023-04-27T09:38:55.742Z,95970.00
2023-04-27T09:41:42.794Z,95959.00
2023-04-27T09:44:30.839Z,95972.00
2023-04-27T09:47:17.502Z,95974.00
2023-04-27T09:50:08.618Z,95966.00
2023-04-27T09:52:55.131Z,95964.00
2023-04-27T09:55:45.908Z,95961.00
2023-04-27T09:59:10.769Z,95967.00
2023-04-27T10:02:20.973Z,95975.00
2023-04-27T10:05:43.575Z,95970.00
2023-04-27T10:08:30.151Z,95965.00
2023-04-27T10:11:19.864Z,95962.00
2023-04-27T10:14:11.323Z,95975.00
2023-04-27T10:17:03.004Z,95957.00
2023-04-27T10:20:04.679Z,95961.00
2023-04-27T10:22:53.580Z,95956.00
2023-04-27T10:25:41.909Z,95947.00
2023-04-27T10:28:42.712Z,95959.00
2023-04-27T10:31:35.742Z,95963.00
2023-04-27T10:34:25.644Z,95950.00
2023-04-27T10:37:12.718Z,95956.00
2023-04-27T10:40:08.445Z,95960.00
2023-04-27T10:42:57.446Z,95957.00
2023-04-27T10:45:52.423Z,95952.00
2023-04-27T10:48:47.909Z,95962.00
2023-04-27T10:51:34.406Z,95952.00
2023-04-27T10:54:29.651Z,95965.00
2023-04-27T10:57:18.416Z,95967.00
2023-04-27T11:00:10.809Z,95953.00
2023-04-27T11:03:23.616Z,95956.00
2023-04-27T11:06:10.398Z,95957.00
2023-04-27T11:09:00.402Z,95962.00
2023-04-27T11:12:16.774Z,95954.00
2023-04-27T11:15:13.489Z,95948.00
2023-04-27T11:18:13.032Z,95939.00
2023-04-27T11:21:14.787Z,95943.00
2023-04-27T11:24:12.129Z,95941.00
2023-04-27T11:27:01.074Z,95951.00
2023-04-27T11:29:57.384Z,95946.00
2023-04-27T11:32:48.279Z,95939.00
2023-04-27T11:35:35.951Z,95937.00
2023-04-27T11:38:22.908Z,95937.00
2023-04-27T11:41:12.203Z,95937.00
2023-04-27T11:47:23.530Z,95939.00
2023-04-27T11:50:09.938Z,95954.00
2023-04-27T11:53:08.871Z,95958.00
2023-04-27T11:56:02.526Z,95948.00
2023-04-27T11:59:06.196Z,95956.00
2023-04-27T12:02:02.333Z,95946.00
2023-04-27T12:05:04.629Z,95943.00
2023-04-27T12:08:04.558Z,95939.00
2023-04-27T12:11:03.895Z,95956.00
2023-04-27T12:13:51.391Z,95957.00
2023-04-27T12:16:45.055Z,95955.00
2023-04-27T12:19:36.272Z,95953.00
2023-04-27T12:22:25.455Z,95955.00
2023-04-27T12:25:15.567Z,95952.00
2023-04-27T12:28:12.583Z,95961.00
2023-04-27T12:31:13.355Z,95955.00
2023-04-27T12:34:21.428Z,95948.00
2023-04-27T12:37:17.653Z,95944.00
2023-04-27T12:40:17.577Z,95942.00
2023-04-27T12:43:10.060Z,95933.00
2023-04-27T12:46:23.088Z,95938.00
2023-04-27T12:50:01.813Z,95928.00
2023-04-27T12:53:37.529Z,95927.00
2023-04-27T12:57:30.914Z,95931.00
2023-04-27T13:00:45.529Z,95928.00
2023-04-27T13:03:39.778Z,95923.00
2023-04-27T13:06:57.554Z,95922.00
2023-04-27T13:10:47.222Z,95925.00
2023-04-27T13:13:47.992Z,95921.00
2023-04-27T13:16:36.964Z,95932.00
2023-04-27T13:19:33.788Z,95912.00
2023-04-27T13:22:52.767Z,95922.00
2023-04-27T13:25:49.898Z,95909.00
2023-04-27T13:28:53.376Z,95911.00
2023-04-27T13:31:44.932Z,95911.00
2023-04-27T13:34:47.508Z,95906.00
2023-04-27T13:37:48.465Z,95916.00
2023-04-27T13:40:54.329Z,95908.00
2023-04-27T13:47:37.688Z,95894.00
2023-04-27T13:51:00.843Z,95909.00
2023-04-27T13:54:14.186Z,95895.00
2023-04-27T13:57:09.768Z,95901.00
2023-04-27T14:00:35.361Z,95894.00
2023-04-27T14:03:31.898Z,95902.00
2023-04-27T14:07:00.676Z,95891.00
2023-04-27T14:13:48.284Z,95894.00
2023-04-27T14:16:44.404Z,95898.00
2023-04-27T14:19:32.073Z,95895.00
2023-04-27T14:22:18.630Z,95885.00
2023-04-27T14:25:07.395Z,95895.00
2023-04-27T14:28:00.850Z,95894.00
2023-04-27T14:30:46.855Z,95885.00
2023-04-27T14:33:37.744Z,95893.00
2023-04-27T14:36:27.541Z,95888.00
2023-04-27T14:39:15.972Z,95889.00
2023-04-27T14:42:28.681Z,95881.00
2023-04-27T14:45:17.992Z,95887.00
2023-04-27T14:48:09.164Z,95884.00
2023-04-27T14:51:11.441Z,95890.00
2023-04-27T14:54:02.488Z,95897.00
2023-04-27T14:57:00.727Z,95892.00
2023-04-27T14:59:52.981Z,95887.00
2023-04-27T15:02:46.163Z,95888.00
2023-04-27T15:05:38.878Z,95885.00
2023-04-27T15:08:25.370Z,95888.00
2023-04-27T15:30:21.463Z,95883.00
2023-04-27T15:34:13.810Z,95870.00
2023-04-27T15:38:09.428Z,95880.00
2023-04-27T16:06:01.902Z,95866.00
2023-04-27T16:09:48.346Z,95838.00
2023-04-27T16:36:24.652Z,95843.00
2023-04-27T16:39:10.781Z,95845.00
2023-04-27T16:41:58.174Z,95840.00
2023-04-27T16:44:45.739Z,95835.00
2023-04-27T16:47:32.577Z,95841.00
2023-04-27T16:50:18.220Z,95829.00
2023-04-27T16:53:10.073Z,95842.00
2023-04-27T16:56:01.510Z,95842.00
2023-04-27T16:58:47.491Z,95840.00
2023-04-27T17:01:33.441Z,95835.00
2023-04-27T17:04:19.301Z,95835.00
2023-04-27T17:07:05.007Z,95843.00
2023-04-27T17:09:51.014Z,95838.00
2023-04-27T17:12:37.338Z,95844.00
2023-04-27T17:15:26.221Z,95843.00
2023-04-27T17:18:11.952Z,95840.00
2023-04-27T17:20:58.351Z,95848.00
2023-04-27T17:23:46.513Z,95845.00
2023-04-27T17:26:33.410Z,95838.00
2023-04-27T17:29:19.685Z,95840.00
2023-04-27T17:32:05.631Z,95838.00
2023-04-27T17:34:51.322Z,95837.00
2023-04-27T17:37:38.121Z,95841.00
2023-04-27T17:40:24.685Z,95836.00
2023-04-27T17:43:10.693Z,95837.00
2023-04-27T17:45:57.047Z,95856.00
2023-04-27T17:48:44.318Z,95845.00
2023-04-27T17:51:32.811Z,95846.00
2023-04-27T17:54:18.668Z,95842.00
2023-04-27T17:57:04.169Z,95853.00
2023-04-27T17:59:50.950Z,95861.00
2023-04-27T18:02:37.102Z,95860.00
2023-04-27T18:05:22.982Z,95866.00
2023-04-27T18:08:08.517Z,95859.00
2023-04-27T18:10:54.222Z,95851.00
2023-04-27T18:13:40.879Z,95855.00
2023-04-27T18:16:26.826Z,95852.00
2023-04-27T18:19:13.113Z,95847.00
2023-04-27T18:21:59.355Z,95854.00
2023-04-27T18:24:46.071Z,95852.00
2023-04-27T18:27:33.041Z,95849.00
2023-04-27T18:30:19.908Z,95849.00
2023-04-27T18:33:06.803Z,95854.00
2023-04-27T18:35:53.160Z,95851.00
2023-04-27T18:38:39.293Z,95849.00
2023-04-27T18:41:25.541Z,95860.00
2023-04-27T18:44:12.272Z,95864.00
2023-04-27T18:46:58.511Z,95868.00
2023-04-27T18:49:44.386Z,95868.00
2023-04-27T18:52:30.801Z,95862.00
2023-04-27T18:55:17.251Z,95880.00
2023-04-27T18:58:03.783Z,95885.00
2023-04-27T19:00:49.565Z,95881.00
2023-04-27T19:03:35.767Z,95879.00
2023-04-27T19:06:21.801Z,95880.00
2023-04-27T19:09:09.218Z,95881.00
2023-04-27T19:12:02.951Z,95879.00
2023-04-27T19:14:51.352Z,95878.00
2023-04-27T19:17:37.251Z,95874.00
2023-04-27T19:20:23.772Z,95876.00
2023-04-27T19:23:12.564Z,95876.00
2023-04-27T19:26:09.709Z,95875.00
2023-04-27T19:28:58.274Z,95885.00
2023-04-27T19:31:47.597Z,95888.00
2023-04-27T19:34:33.228Z,95899.00
2023-04-27T19:37:18.814Z,95898.00
2023-04-27T19:40:05.199Z,95895.00
2023-04-27T19:42:51.054Z,95898.00
2023-04-27T19:45:38.845Z,95901.00
2023-04-27T19:48:24.879Z,95885.00
2023-04-27T19:51:11.284Z,95897.00
2023-04-27T19:53:57.242Z,95887.00
2023-04-27T19:56:43.590Z,95897.00
2023-04-27T19:59:29.294Z,95888.00
2023-04-27T20:02:16.077Z,95891.00
2023-04-27T20:05:02.869Z,95879.00
2023-04-27T20:07:51.744Z,95878.00
2023-04-27T20:10:37.789Z,95884.00
2023-04-27T20:13:23.528Z,95874.00
2023-04-27T20:16:09.892Z,95875.00
2023-04-27T20:19:18.053Z,95874.00
2023-04-27T20:22:23.798Z,95866.00
2023-04-27T20:25:10.117Z,95878.00
2023-04-27T20:28:14.692Z,95865.00
2023-04-27T20:31:19.352Z,95865.00
2023-04-27T20:34:23.913Z,95859.00
2023-04-27T20:37:09.705Z,95865.00
2023-04-27T20:39:56.302Z,95867.00
2023-04-27T20:42:43.402Z,95861.00
2023-04-27T20:45:29.606Z,95850.00
2023-04-27T20:48:15.446Z,95854.00
2023-04-27T20:51:01.428Z,95841.00
2023-04-27T20:53:47.000Z,95856.00
2023-04-27T20:56:33.622Z,95853.00
2023-04-27T20:59:19.074Z,95851.00
2023-04-27T21:02:04.673Z,95848.00
2023-04-27T21:04:51.183Z,95850.00
2023-04-27T21:07:37.860Z,95843.00
2023-04-27T21:10:24.118Z,95840.00
2023-04-27T21:13:10.130Z,95849.00
2023-04-27T21:15:56.014Z,95842.00
2023-04-27T21:18:45.046Z,95837.00
2023-04-27T21:21:50.181Z,95838.00
2023-04-27T21:24:55.804Z,95830.00
2023-04-27T21:28:01.683Z,95834.00
2023-04-27T21:31:11.011Z,95838.00
2023-04-27T21:34:17.250Z,95835.00
2023-04-27T21:37:22.303Z,95829.00
2023-04-27T21:40:08.764Z,95828.00
2023-04-27T21:43:13.549Z,95830.00
2023-04-27T21:46:18.477Z,95830.00
2023-04-27T21:49:04.473Z,95829.00
2023-04-27T21:52:10.852Z,95826.00
2023-04-27T21:55:15.692Z,95829.00
2023-04-27T21:58:01.908Z,95822.00
2023-04-27T22:01:08.994Z,95824.00
2023-04-27T22:03:55.537Z,95818.00
2023-04-27T22:07:00.527Z,95818.00
2023-04-27T22:10:05.900Z,95811.00
2023-04-27T22:12:52.092Z,95815.00
2023-04-27T22:15:38.559Z,95809.00
2023-04-27T22:18:43.398Z,95809.00
2023-04-27T22:21:48.831Z,95808.00
2023-04-27T22:24:53.478Z,95797.00
2023-04-27T22:27:58.672Z,95802.00
2023-04-27T22:31:04.142Z,95807.00
2023-04-27T22:34:09.119Z,95807.00
2023-04-27T22:37:14.304Z,95804.00
2023-04-27T22:40:19.258Z,95803.00
2023-04-27T22:43:24.321Z,95812.00
2023-04-27T22:46:11.036Z,95815.00
2023-04-27T22:48:58.706Z,95808.00
2023-04-27T22:52:04.122Z,95805.00
2023-04-27T22:55:09.113Z,95808.00
2023-04-27T22:58:13.572Z,95801.00
2023-04-27T23:01:18.601Z,95799.00
2023-04-27T23:04:26.695Z,95796.00
2023-04-27T23:07:32.043Z,95800.00
2023-04-27T23:10:39.016Z,95802.00
2023-04-27T23:13:27.533Z,95806.00
2023-04-27T23:16:14.912Z,95807.00
2023-04-27T23:19:20.008Z,95808.00
2023-04-27T23:22:25.151Z,95818.00
2023-04-27T23:25:33.371Z,95814.00
2023-04-27T23:28:37.700Z,95802.00
2023-04-27T23:31:42.661Z,95807.00
2023-04-27T23:34:47.866Z,95804.00
2023-04-27T23:37:53.191Z,95812.00
2023-04-27T23:40:58.343Z,95810.00
2023-04-27T23:44:02.806Z,95813.00
2023-04-27T23:46:49.025Z,95818.00
2023-04-27T23:49:53.836Z,95813.00
2023-04-27T23:52:58.774Z,95811.00
2023-04-27T23:56:03.768Z,95793.00
2023-04-27T23:59:08.840Z,95789.00
